sensor_id;sensor_type;location;lat;lon;timestamp;temperature;humidity
15072;DHT22;7635;56.696;13.002;2023-09-18T00:02:06;14.10;99.90
15072;DHT22;7635;56.696;13.002;2023-09-18T00:04:33;14.10;99.90
15072;DHT22;7635;56.696;13.002;2023-09-18T00:07:00;14.10;99.90
15072;DHT22;7635;56.696;13.002;2023-09-18T00:09:26;14.10;99.90
15072;DHT22;7635;56.696;13.002;2023-09-18T00:11:53;14.10;99.90
15072;DHT22;7635;56.696;13.002;2023-09-18T00:14:21;14.10;99.90
15072;DHT22;7635;56.696;13.002;2023-09-18T00:16:48;14.10;99.90
15072;DHT22;7635;56.696;13.002;2023-09-18T00:19:17;14.10;99.90
15072;DHT22;7635;56.696;13.002;2023-09-18T00:21:44;14.10;99.90
15072;DHT22;7635;56.696;13.002;2023-09-18T00:24:10;14.10;99.90
15072;DHT22;7635;56.696;13.002;2023-09-18T00:26:37;14.10;99.90
15072;DHT22;7635;56.696;13.002;2023-09-18T00:29:04;14.10;99.90
15072;DHT22;7635;56.696;13.002;2023-09-18T00:31:32;14.20;99.90
15072;DHT22;7635;56.696;13.002;2023-09-18T00:33:58;14.20;99.90
15072;DHT22;7635;56.696;13.002;2023-09-18T00:36:25;14.20;99.90
15072;DHT22;7635;56.696;13.002;2023-09-18T00:38:52;14.20;99.90
15072;DHT22;7635;56.696;13.002;2023-09-18T00:41:18;14.20;99.90
15072;DHT22;7635;56.696;13.002;2023-09-18T00:43:45;14.20;99.90
15072;DHT22;7635;56.696;13.002;2023-09-18T00:46:12;14.20;99.90
15072;DHT22;7635;56.696;13.002;2023-09-18T00:48:40;14.20;99.90
15072;DHT22;7635;56.696;13.002;2023-09-18T00:51:08;14.30;99.90
15072;DHT22;7635;56.696;13.002;2023-09-18T00:53:37;14.30;99.90
15072;DHT22;7635;56.696;13.002;2023-09-18T00:56:04;14.30;99.90
15072;DHT22;7635;56.696;13.002;2023-09-18T00:58:31;14.30;99.90
15072;DHT22;7635;56.696;13.002;2023-09-18T01:00:59;14.40;99.90
15072;DHT22;7635;56.696;13.002;2023-09-18T01:03:26;14.40;99.90
15072;DHT22;7635;56.696;13.002;2023-09-18T01:05:55;14.40;99.90
15072;DHT22;7635;56.696;13.002;2023-09-18T01:08:22;14.40;99.90
15072;DHT22;7635;56.696;13.002;2023-09-18T01:11:00;14.50;99.90
15072;DHT22;7635;56.696;13.002;2023-09-18T01:13:35;14.50;99.90
15072;DHT22;7635;56.696;13.002;2023-09-18T01:16:10;14.50;99.90
15072;DHT22;7635;56.696;13.002;2023-09-18T01:18:38;14.60;99.90
15072;DHT22;7635;56.696;13.002;2023-09-18T01:21:06;14.60;99.90
15072;DHT22;7635;56.696;13.002;2023-09-18T01:23:34;14.60;99.90
15072;DHT22;7635;56.696;13.002;2023-09-18T01:26:01;14.70;99.90
15072;DHT22;7635;56.696;13.002;2023-09-18T01:28:28;14.70;99.90
15072;DHT22;7635;56.696;13.002;2023-09-18T01:30:54;14.70;99.90
15072;DHT22;7635;56.696;13.002;2023-09-18T01:33:21;14.70;99.90
15072;DHT22;7635;56.696;13.002;2023-09-18T01:35:50;14.80;99.90
15072;DHT22;7635;56.696;13.002;2023-09-18T01:38:17;14.80;99.90
15072;DHT22;7635;56.696;13.002;2023-09-18T01:40:45;14.80;99.90
15072;DHT22;7635;56.696;13.002;2023-09-18T01:43:12;14.80;99.90
15072;DHT22;7635;56.696;13.002;2023-09-18T01:45:39;14.80;99.90
15072;DHT22;7635;56.696;13.002;2023-09-18T01:48:06;14.80;99.90
15072;DHT22;7635;56.696;13.002;2023-09-18T01:50:33;14.80;99.90
15072;DHT22;7635;56.696;13.002;2023-09-18T01:53:00;14.80;99.90
15072;DHT22;7635;56.696;13.002;2023-09-18T01:55:27;14.80;99.90
15072;DHT22;7635;56.696;13.002;2023-09-18T01:57:56;14.80;99.90
15072;DHT22;7635;56.696;13.002;2023-09-18T02:00:23;14.90;99.90
15072;DHT22;7635;56.696;13.002;2023-09-18T02:02:49;14.90;99.90
15072;DHT22;7635;56.696;13.002;2023-09-18T02:05:16;14.90;99.90
15072;DHT22;7635;56.696;13.002;2023-09-18T02:07:43;14.90;99.90
15072;DHT22;7635;56.696;13.002;2023-09-18T02:10:09;14.90;99.90
15072;DHT22;7635;56.696;13.002;2023-09-18T02:12:38;14.90;99.90
15072;DHT22;7635;56.696;13.002;2023-09-18T02:15:07;14.90;99.90
15072;DHT22;7635;56.696;13.002;2023-09-18T02:17:35;14.90;99.90
15072;DHT22;7635;56.696;13.002;2023-09-18T02:20:03;14.90;99.90
15072;DHT22;7635;56.696;13.002;2023-09-18T02:22:36;14.90;99.90
15072;DHT22;7635;56.696;13.002;2023-09-18T02:25:05;14.90;99.90
15072;DHT22;7635;56.696;13.002;2023-09-18T02:27:32;15.00;99.90
15072;DHT22;7635;56.696;13.002;2023-09-18T02:29:59;15.00;99.90
15072;DHT22;7635;56.696;13.002;2023-09-18T02:32:27;15.00;99.90
15072;DHT22;7635;56.696;13.002;2023-09-18T02:34:54;15.00;99.90
15072;DHT22;7635;56.696;13.002;2023-09-18T02:37:20;14.90;99.90
15072;DHT22;7635;56.696;13.002;2023-09-18T02:39:48;15.00;99.90
15072;DHT22;7635;56.696;13.002;2023-09-18T02:42:14;15.00;99.90
15072;DHT22;7635;56.696;13.002;2023-09-18T02:44:41;15.00;99.90
15072;DHT22;7635;56.696;13.002;2023-09-18T02:47:08;15.00;99.90
15072;DHT22;7635;56.696;13.002;2023-09-18T02:49:36;15.00;99.90
15072;DHT22;7635;56.696;13.002;2023-09-18T02:52:03;15.00;99.90
15072;DHT22;7635;56.696;13.002;2023-09-18T02:54:30;15.00;99.90
15072;DHT22;7635;56.696;13.002;2023-09-18T02:56:56;15.00;99.90
15072;DHT22;7635;56.696;13.002;2023-09-18T02:59:24;15.00;99.90
15072;DHT22;7635;56.696;13.002;2023-09-18T03:01:51;15.00;99.90
15072;DHT22;7635;56.696;13.002;2023-09-18T03:04:19;15.00;99.90
15072;DHT22;7635;56.696;13.002;2023-09-18T03:06:47;15.00;99.90
15072;DHT22;7635;56.696;13.002;2023-09-18T03:09:14;15.00;99.90
15072;DHT22;7635;56.696;13.002;2023-09-18T03:11:42;15.00;99.90
15072;DHT22;7635;56.696;13.002;2023-09-18T03:14:09;15.00;99.90
15072;DHT22;7635;56.696;13.002;2023-09-18T03:16:36;15.10;99.90
15072;DHT22;7635;56.696;13.002;2023-09-18T03:19:03;15.00;99.90
15072;DHT22;7635;56.696;13.002;2023-09-18T03:21:29;15.00;99.90
15072;DHT22;7635;56.696;13.002;2023-09-18T03:24:00;15.10;99.90
15072;DHT22;7635;56.696;13.002;2023-09-18T03:26:26;15.10;99.90
15072;DHT22;7635;56.696;13.002;2023-09-18T03:28:53;15.00;99.90
15072;DHT22;7635;56.696;13.002;2023-09-18T03:31:20;15.00;99.90
15072;DHT22;7635;56.696;13.002;2023-09-18T03:33:46;15.00;99.90
15072;DHT22;7635;56.696;13.002;2023-09-18T03:36:13;14.90;99.90
15072;DHT22;7635;56.696;13.002;2023-09-18T03:38:40;14.90;99.90
15072;DHT22;7635;56.696;13.002;2023-09-18T03:41:08;14.80;99.90
15072;DHT22;7635;56.696;13.002;2023-09-18T03:43:35;14.80;99.90
15072;DHT22;7635;56.696;13.002;2023-09-18T03:46:05;14.80;99.90
15072;DHT22;7635;56.696;13.002;2023-09-18T03:48:31;14.80;99.90
15072;DHT22;7635;56.696;13.002;2023-09-18T03:51:03;14.80;99.90
15072;DHT22;7635;56.696;13.002;2023-09-18T03:53:29;14.80;99.90
15072;DHT22;7635;56.696;13.002;2023-09-18T03:55:56;14.80;99.90
15072;DHT22;7635;56.696;13.002;2023-09-18T03:58:24;14.70;99.90
15072;DHT22;7635;56.696;13.002;2023-09-18T04:00:51;14.80;99.90
15072;DHT22;7635;56.696;13.002;2023-09-18T04:03:17;14.80;99.90
15072;DHT22;7635;56.696;13.002;2023-09-18T04:05:44;14.80;99.90
15072;DHT22;7635;56.696;13.002;2023-09-18T04:08:11;14.80;99.90
15072;DHT22;7635;56.696;13.002;2023-09-18T04:10:38;14.80;99.90
15072;DHT22;7635;56.696;13.002;2023-09-18T04:13:05;14.80;99.90
15072;DHT22;7635;56.696;13.002;2023-09-18T04:15:33;14.80;99.90
15072;DHT22;7635;56.696;13.002;2023-09-18T04:18:03;14.70;99.90
15072;DHT22;7635;56.696;13.002;2023-09-18T04:20:30;14.70;99.90
15072;DHT22;7635;56.696;13.002;2023-09-18T04:23:19;14.70;99.90
15072;DHT22;7635;56.696;13.002;2023-09-18T04:25:47;14.70;99.90
15072;DHT22;7635;56.696;13.002;2023-09-18T04:28:14;14.70;99.90
15072;DHT22;7635;56.696;13.002;2023-09-18T04:30:42;14.70;99.90
15072;DHT22;7635;56.696;13.002;2023-09-18T04:33:09;14.80;99.90
15072;DHT22;7635;56.696;13.002;2023-09-18T04:35:37;14.70;99.90
15072;DHT22;7635;56.696;13.002;2023-09-18T04:38:05;14.80;99.90
15072;DHT22;7635;56.696;13.002;2023-09-18T04:40:32;14.80;99.90
15072;DHT22;7635;56.696;13.002;2023-09-18T04:42:59;14.80;99.90
15072;DHT22;7635;56.696;13.002;2023-09-18T04:45:26;14.80;99.90
15072;DHT22;7635;56.696;13.002;2023-09-18T04:47:54;14.80;99.90
15072;DHT22;7635;56.696;13.002;2023-09-18T04:50:22;14.80;99.90
15072;DHT22;7635;56.696;13.002;2023-09-18T04:52:49;14.80;99.90
15072;DHT22;7635;56.696;13.002;2023-09-18T04:55:17;14.80;99.90
15072;DHT22;7635;56.696;13.002;2023-09-18T04:57:44;14.80;99.90
15072;DHT22;7635;56.696;13.002;2023-09-18T05:00:11;14.80;99.90
15072;DHT22;7635;56.696;13.002;2023-09-18T05:02:39;14.80;99.90
15072;DHT22;7635;56.696;13.002;2023-09-18T05:05:08;14.80;99.90
15072;DHT22;7635;56.696;13.002;2023-09-18T05:07:35;14.80;99.90
15072;DHT22;7635;56.696;13.002;2023-09-18T05:10:02;14.80;99.90
15072;DHT22;7635;56.696;13.002;2023-09-18T05:12:30;14.80;99.90
15072;DHT22;7635;56.696;13.002;2023-09-18T05:14:57;14.80;99.90
15072;DHT22;7635;56.696;13.002;2023-09-18T05:17:40;14.90;99.90
15072;DHT22;7635;56.696;13.002;2023-09-18T05:20:11;14.90;99.90
15072;DHT22;7635;56.696;13.002;2023-09-18T05:22:41;14.90;99.90
15072;DHT22;7635;56.696;13.002;2023-09-18T05:25:08;14.90;99.90
15072;DHT22;7635;56.696;13.002;2023-09-18T05:27:35;15.00;99.90
15072;DHT22;7635;56.696;13.002;2023-09-18T05:30:10;15.00;99.90
15072;DHT22;7635;56.696;13.002;2023-09-18T05:32:37;15.00;99.90
15072;DHT22;7635;56.696;13.002;2023-09-18T05:35:05;15.00;99.90
15072;DHT22;7635;56.696;13.002;2023-09-18T05:37:33;15.00;99.90
15072;DHT22;7635;56.696;13.002;2023-09-18T05:40:00;15.00;99.90
15072;DHT22;7635;56.696;13.002;2023-09-18T05:42:26;15.00;99.90
15072;DHT22;7635;56.696;13.002;2023-09-18T05:44:53;15.00;99.90
15072;DHT22;7635;56.696;13.002;2023-09-18T05:47:20;15.10;99.90
15072;DHT22;7635;56.696;13.002;2023-09-18T05:49:46;15.10;99.90
15072;DHT22;7635;56.696;13.002;2023-09-18T05:52:13;15.10;99.90
15072;DHT22;7635;56.696;13.002;2023-09-18T05:54:41;15.10;99.90
15072;DHT22;7635;56.696;13.002;2023-09-18T05:57:08;15.20;99.90
15072;DHT22;7635;56.696;13.002;2023-09-18T05:59:34;15.20;99.90
15072;DHT22;7635;56.696;13.002;2023-09-18T06:02:01;15.20;99.90
15072;DHT22;7635;56.696;13.002;2023-09-18T06:04:28;15.20;99.90
15072;DHT22;7635;56.696;13.002;2023-09-18T06:06:56;15.20;99.90
15072;DHT22;7635;56.696;13.002;2023-09-18T06:09:23;15.30;99.90
15072;DHT22;7635;56.696;13.002;2023-09-18T06:11:51;15.30;99.90
15072;DHT22;7635;56.696;13.002;2023-09-18T06:14:17;15.30;99.90
15072;DHT22;7635;56.696;13.002;2023-09-18T06:16:44;15.40;99.90
15072;DHT22;7635;56.696;13.002;2023-09-18T06:19:11;15.40;99.90
15072;DHT22;7635;56.696;13.002;2023-09-18T06:21:37;15.40;99.90
15072;DHT22;7635;56.696;13.002;2023-09-18T06:24:05;15.40;99.90
15072;DHT22;7635;56.696;13.002;2023-09-18T06:26:32;15.50;99.90
15072;DHT22;7635;56.696;13.002;2023-09-18T06:29:00;15.50;99.90
15072;DHT22;7635;56.696;13.002;2023-09-18T06:31:27;15.50;99.90
15072;DHT22;7635;56.696;13.002;2023-09-18T06:33:54;15.60;99.90
15072;DHT22;7635;56.696;13.002;2023-09-18T06:36:21;15.60;99.90
15072;DHT22;7635;56.696;13.002;2023-09-18T06:38:48;15.60;99.90
15072;DHT22;7635;56.696;13.002;2023-09-18T06:41:14;15.70;99.90
15072;DHT22;7635;56.696;13.002;2023-09-18T06:43:41;15.70;99.90
15072;DHT22;7635;56.696;13.002;2023-09-18T06:46:09;15.70;99.90
15072;DHT22;7635;56.696;13.002;2023-09-18T06:48:36;15.70;99.90
15072;DHT22;7635;56.696;13.002;2023-09-18T06:51:02;15.70;99.90
15072;DHT22;7635;56.696;13.002;2023-09-18T06:53:29;15.70;99.90
15072;DHT22;7635;56.696;13.002;2023-09-18T06:55:56;15.80;99.90
15072;DHT22;7635;56.696;13.002;2023-09-18T06:58:22;15.80;99.90
15072;DHT22;7635;56.696;13.002;2023-09-18T07:00:49;15.80;99.90
15072;DHT22;7635;56.696;13.002;2023-09-18T07:03:18;15.80;99.90
15072;DHT22;7635;56.696;13.002;2023-09-18T07:05:44;15.80;99.90
15072;DHT22;7635;56.696;13.002;2023-09-18T07:08:11;15.90;99.90
15072;DHT22;7635;56.696;13.002;2023-09-18T07:10:38;15.90;99.90
15072;DHT22;7635;56.696;13.002;2023-09-18T07:13:05;15.90;99.90
15072;DHT22;7635;56.696;13.002;2023-09-18T07:15:32;15.90;99.90
15072;DHT22;7635;56.696;13.002;2023-09-18T07:17:59;15.90;99.90
15072;DHT22;7635;56.696;13.002;2023-09-18T07:20:26;15.90;99.90
15072;DHT22;7635;56.696;13.002;2023-09-18T07:22:53;15.90;99.90
15072;DHT22;7635;56.696;13.002;2023-09-18T07:25:21;15.90;99.90
15072;DHT22;7635;56.696;13.002;2023-09-18T07:27:47;16.00;99.90
15072;DHT22;7635;56.696;13.002;2023-09-18T07:30:15;16.00;99.90
15072;DHT22;7635;56.696;13.002;2023-09-18T07:32:43;16.00;99.90
15072;DHT22;7635;56.696;13.002;2023-09-18T07:35:10;16.00;99.90
15072;DHT22;7635;56.696;13.002;2023-09-18T07:37:38;16.10;99.90
15072;DHT22;7635;56.696;13.002;2023-09-18T07:40:06;16.10;99.90
15072;DHT22;7635;56.696;13.002;2023-09-18T07:42:33;16.10;99.90
15072;DHT22;7635;56.696;13.002;2023-09-18T07:45:00;16.10;99.90
15072;DHT22;7635;56.696;13.002;2023-09-18T07:47:27;16.20;99.90
15072;DHT22;7635;56.696;13.002;2023-09-18T07:49:54;16.20;99.90
15072;DHT22;7635;56.696;13.002;2023-09-18T07:52:20;16.30;99.90
15072;DHT22;7635;56.696;13.002;2023-09-18T07:54:48;16.30;99.90
15072;DHT22;7635;56.696;13.002;2023-09-18T07:57:16;16.30;99.90
15072;DHT22;7635;56.696;13.002;2023-09-18T07:59:44;16.30;99.90
15072;DHT22;7635;56.696;13.002;2023-09-18T08:02:11;16.30;99.90
15072;DHT22;7635;56.696;13.002;2023-09-18T08:04:38;16.30;99.90
15072;DHT22;7635;56.696;13.002;2023-09-18T08:07:05;16.30;99.90
15072;DHT22;7635;56.696;13.002;2023-09-18T08:09:32;16.30;99.90
15072;DHT22;7635;56.696;13.002;2023-09-18T08:12:03;16.30;99.90
15072;DHT22;7635;56.696;13.002;2023-09-18T08:14:30;16.30;99.90
15072;DHT22;7635;56.696;13.002;2023-09-18T08:16:57;16.30;99.90
15072;DHT22;7635;56.696;13.002;2023-09-18T08:19:24;16.30;99.90
15072;DHT22;7635;56.696;13.002;2023-09-18T08:21:53;16.30;99.90
15072;DHT22;7635;56.696;13.002;2023-09-18T08:24:20;16.30;99.90
15072;DHT22;7635;56.696;13.002;2023-09-18T08:26:47;16.30;99.90
15072;DHT22;7635;56.696;13.002;2023-09-18T08:29:15;16.30;99.90
15072;DHT22;7635;56.696;13.002;2023-09-18T08:31:43;16.40;99.90
15072;DHT22;7635;56.696;13.002;2023-09-18T08:34:10;16.40;99.90
15072;DHT22;7635;56.696;13.002;2023-09-18T08:36:36;16.40;99.90
15072;DHT22;7635;56.696;13.002;2023-09-18T08:39:03;16.40;99.90
15072;DHT22;7635;56.696;13.002;2023-09-18T08:41:32;16.40;99.90
15072;DHT22;7635;56.696;13.002;2023-09-18T08:44:00;16.40;99.90
15072;DHT22;7635;56.696;13.002;2023-09-18T08:46:30;16.40;99.90
15072;DHT22;7635;56.696;13.002;2023-09-18T08:49:00;16.40;99.90
15072;DHT22;7635;56.696;13.002;2023-09-18T08:51:27;16.50;99.90
15072;DHT22;7635;56.696;13.002;2023-09-18T08:53:55;16.50;99.90
15072;DHT22;7635;56.696;13.002;2023-09-18T08:56:22;16.60;99.90
15072;DHT22;7635;56.696;13.002;2023-09-18T08:58:49;16.60;99.90
15072;DHT22;7635;56.696;13.002;2023-09-18T09:01:17;16.60;99.90
15072;DHT22;7635;56.696;13.002;2023-09-18T09:03:46;16.70;99.90
15072;DHT22;7635;56.696;13.002;2023-09-18T09:06:13;16.70;99.90
15072;DHT22;7635;56.696;13.002;2023-09-18T09:08:40;16.70;99.90
15072;DHT22;7635;56.696;13.002;2023-09-18T09:11:06;16.80;99.90
15072;DHT22;7635;56.696;13.002;2023-09-18T09:13:33;16.80;99.90
15072;DHT22;7635;56.696;13.002;2023-09-18T09:16:00;16.80;99.90
15072;DHT22;7635;56.696;13.002;2023-09-18T09:18:28;16.90;99.90
15072;DHT22;7635;56.696;13.002;2023-09-18T09:20:59;16.90;99.90
15072;DHT22;7635;56.696;13.002;2023-09-18T09:23:28;17.00;99.90
15072;DHT22;7635;56.696;13.002;2023-09-18T09:26:12;17.00;99.90
15072;DHT22;7635;56.696;13.002;2023-09-18T09:28:39;17.10;99.90
15072;DHT22;7635;56.696;13.002;2023-09-18T09:31:08;17.10;99.90
15072;DHT22;7635;56.696;13.002;2023-09-18T09:33:36;17.20;99.90
15072;DHT22;7635;56.696;13.002;2023-09-18T09:36:05;17.20;99.90
15072;DHT22;7635;56.696;13.002;2023-09-18T09:38:34;17.30;99.90
15072;DHT22;7635;56.696;13.002;2023-09-18T09:41:01;17.30;99.90
15072;DHT22;7635;56.696;13.002;2023-09-18T09:43:31;17.40;99.90
15072;DHT22;7635;56.696;13.002;2023-09-18T09:45:58;17.40;99.90
15072;DHT22;7635;56.696;13.002;2023-09-18T09:48:25;17.40;99.90
15072;DHT22;7635;56.696;13.002;2023-09-18T09:50:52;17.40;99.90
15072;DHT22;7635;56.696;13.002;2023-09-18T09:53:44;17.50;99.90
15072;DHT22;7635;56.696;13.002;2023-09-18T09:56:12;17.50;99.90
15072;DHT22;7635;56.696;13.002;2023-09-18T09:58:39;17.50;99.90
15072;DHT22;7635;56.696;13.002;2023-09-18T10:01:11;17.60;99.90
15072;DHT22;7635;56.696;13.002;2023-09-18T10:03:43;17.70;99.90
15072;DHT22;7635;56.696;13.002;2023-09-18T10:06:10;17.80;99.90
15072;DHT22;7635;56.696;13.002;2023-09-18T10:08:39;17.80;99.90
15072;DHT22;7635;56.696;13.002;2023-09-18T10:11:09;17.90;99.90
15072;DHT22;7635;56.696;13.002;2023-09-18T10:13:46;17.90;99.90
15072;DHT22;7635;56.696;13.002;2023-09-18T10:16:17;18.00;99.90
15072;DHT22;7635;56.696;13.002;2023-09-18T10:18:54;18.00;99.90
15072;DHT22;7635;56.696;13.002;2023-09-18T10:21:26;18.10;99.90
15072;DHT22;7635;56.696;13.002;2023-09-18T10:23:59;18.20;99.90
15072;DHT22;7635;56.696;13.002;2023-09-18T10:26:32;18.20;99.90
15072;DHT22;7635;56.696;13.002;2023-09-18T10:29:04;18.20;99.90
15072;DHT22;7635;56.696;13.002;2023-09-18T10:31:38;18.20;99.90
15072;DHT22;7635;56.696;13.002;2023-09-18T10:34:06;18.30;99.90
15072;DHT22;7635;56.696;13.002;2023-09-18T10:36:34;18.30;99.90
15072;DHT22;7635;56.696;13.002;2023-09-18T10:39:01;18.40;99.90
15072;DHT22;7635;56.696;13.002;2023-09-18T10:41:35;18.40;99.90
15072;DHT22;7635;56.696;13.002;2023-09-18T10:44:03;18.50;99.90
15072;DHT22;7635;56.696;13.002;2023-09-18T10:46:30;18.50;99.90
15072;DHT22;7635;56.696;13.002;2023-09-18T10:48:58;18.50;99.90
15072;DHT22;7635;56.696;13.002;2023-09-18T10:51:26;18.50;99.90
15072;DHT22;7635;56.696;13.002;2023-09-18T10:53:53;18.60;99.90
15072;DHT22;7635;56.696;13.002;2023-09-18T10:56:22;18.60;99.90
15072;DHT22;7635;56.696;13.002;2023-09-18T10:58:58;18.60;99.90
15072;DHT22;7635;56.696;13.002;2023-09-18T11:01:25;18.70;99.90
15072;DHT22;7635;56.696;13.002;2023-09-18T11:03:53;18.70;99.90
15072;DHT22;7635;56.696;13.002;2023-09-18T11:06:25;18.80;99.90
15072;DHT22;7635;56.696;13.002;2023-09-18T11:08:59;18.80;99.90
15072;DHT22;7635;56.696;13.002;2023-09-18T11:11:27;18.90;99.90
15072;DHT22;7635;56.696;13.002;2023-09-18T11:13:57;19.10;99.90
15072;DHT22;7635;56.696;13.002;2023-09-18T11:16:35;19.20;99.90
15072;DHT22;7635;56.696;13.002;2023-09-18T11:19:11;19.30;99.90
15072;DHT22;7635;56.696;13.002;2023-09-18T11:21:39;19.50;99.90
15072;DHT22;7635;56.696;13.002;2023-09-18T11:24:07;19.70;99.90
15072;DHT22;7635;56.696;13.002;2023-09-18T11:26:39;19.80;99.90
15072;DHT22;7635;56.696;13.002;2023-09-18T11:29:08;19.90;99.90
15072;DHT22;7635;56.696;13.002;2023-09-18T11:31:46;20.10;99.90
15072;DHT22;7635;56.696;13.002;2023-09-18T11:34:14;20.10;99.90
15072;DHT22;7635;56.696;13.002;2023-09-18T11:36:41;20.10;99.90
15072;DHT22;7635;56.696;13.002;2023-09-18T11:39:08;20.00;99.90
15072;DHT22;7635;56.696;13.002;2023-09-18T11:41:35;20.00;99.90
15072;DHT22;7635;56.696;13.002;2023-09-18T11:44:33;20.10;99.90
15072;DHT22;7635;56.696;13.002;2023-09-18T11:47:02;20.10;99.90
15072;DHT22;7635;56.696;13.002;2023-09-18T11:49:33;20.20;99.90
15072;DHT22;7635;56.696;13.002;2023-09-18T11:52:00;20.30;99.90
15072;DHT22;7635;56.696;13.002;2023-09-18T11:54:29;20.40;99.90
15072;DHT22;7635;56.696;13.002;2023-09-18T11:56:57;20.50;99.90
15072;DHT22;7635;56.696;13.002;2023-09-18T11:59:39;20.60;99.90
15072;DHT22;7635;56.696;13.002;2023-09-18T12:02:08;20.70;99.90
15072;DHT22;7635;56.696;13.002;2023-09-18T12:04:35;20.80;99.90
15072;DHT22;7635;56.696;13.002;2023-09-18T12:07:03;20.90;99.90
15072;DHT22;7635;56.696;13.002;2023-09-18T12:09:30;20.90;99.90
15072;DHT22;7635;56.696;13.002;2023-09-18T12:11:58;20.90;99.90
15072;DHT22;7635;56.696;13.002;2023-09-18T12:14:30;20.90;99.90
15072;DHT22;7635;56.696;13.002;2023-09-18T12:16:59;20.90;99.90
15072;DHT22;7635;56.696;13.002;2023-09-18T12:19:26;20.90;99.90
15072;DHT22;7635;56.696;13.002;2023-09-18T12:21:53;21.00;99.90
15072;DHT22;7635;56.696;13.002;2023-09-18T12:24:21;21.10;99.90
15072;DHT22;7635;56.696;13.002;2023-09-18T12:26:48;21.20;99.90
15072;DHT22;7635;56.696;13.002;2023-09-18T12:29:15;21.40;99.90
15072;DHT22;7635;56.696;13.002;2023-09-18T12:31:42;21.50;99.90
15072;DHT22;7635;56.696;13.002;2023-09-18T12:34:15;21.70;99.90
15072;DHT22;7635;56.696;13.002;2023-09-18T12:36:43;21.80;99.90
15072;DHT22;7635;56.696;13.002;2023-09-18T12:39:10;21.90;99.90
15072;DHT22;7635;56.696;13.002;2023-09-18T12:41:38;21.90;99.90
15072;DHT22;7635;56.696;13.002;2023-09-18T12:44:05;21.80;99.90
15072;DHT22;7635;56.696;13.002;2023-09-18T12:46:33;21.80;99.90
15072;DHT22;7635;56.696;13.002;2023-09-18T12:49:16;21.80;99.90
15072;DHT22;7635;56.696;13.002;2023-09-18T12:51:43;21.80;99.90
15072;DHT22;7635;56.696;13.002;2023-09-18T12:54:11;21.80;99.90
15072;DHT22;7635;56.696;13.002;2023-09-18T12:56:42;21.80;99.90
15072;DHT22;7635;56.696;13.002;2023-09-18T12:59:09;21.90;99.90
15072;DHT22;7635;56.696;13.002;2023-09-18T13:01:36;21.90;99.90
15072;DHT22;7635;56.696;13.002;2023-09-18T13:04:04;21.90;99.90
15072;DHT22;7635;56.696;13.002;2023-09-18T13:06:33;21.80;99.90
15072;DHT22;7635;56.696;13.002;2023-09-18T13:09:14;21.80;99.90
15072;DHT22;7635;56.696;13.002;2023-09-18T13:11:52;21.80;99.90
15072;DHT22;7635;56.696;13.002;2023-09-18T13:14:19;21.70;99.90
15072;DHT22;7635;56.696;13.002;2023-09-18T13:16:46;21.70;99.90
15072;DHT22;7635;56.696;13.002;2023-09-18T13:19:12;21.70;99.90
15072;DHT22;7635;56.696;13.002;2023-09-18T13:21:46;21.70;99.90
15072;DHT22;7635;56.696;13.002;2023-09-18T13:24:24;21.70;99.90
15072;DHT22;7635;56.696;13.002;2023-09-18T13:26:52;21.70;99.90
15072;DHT22;7635;56.696;13.002;2023-09-18T13:29:19;21.60;99.90
15072;DHT22;7635;56.696;13.002;2023-09-18T13:31:46;21.50;99.90
15072;DHT22;7635;56.696;13.002;2023-09-18T13:34:13;21.50;99.90
15072;DHT22;7635;56.696;13.002;2023-09-18T13:36:44;21.50;99.90
15072;DHT22;7635;56.696;13.002;2023-09-18T13:39:11;21.50;99.90
15072;DHT22;7635;56.696;13.002;2023-09-18T13:41:38;21.50;99.90
15072;DHT22;7635;56.696;13.002;2023-09-18T13:44:06;21.40;99.90
15072;DHT22;7635;56.696;13.002;2023-09-18T13:46:33;21.40;99.90
15072;DHT22;7635;56.696;13.002;2023-09-18T13:49:02;21.40;99.90
15072;DHT22;7635;56.696;13.002;2023-09-18T13:51:29;21.30;99.90
15072;DHT22;7635;56.696;13.002;2023-09-18T13:53:57;21.30;99.90
15072;DHT22;7635;56.696;13.002;2023-09-18T13:56:24;21.30;99.90
15072;DHT22;7635;56.696;13.002;2023-09-18T13:58:53;21.30;99.90
15072;DHT22;7635;56.696;13.002;2023-09-18T14:01:21;21.20;99.90
15072;DHT22;7635;56.696;13.002;2023-09-18T14:03:48;21.30;99.90
15072;DHT22;7635;56.696;13.002;2023-09-18T14:06:16;21.20;99.90
15072;DHT22;7635;56.696;13.002;2023-09-18T14:08:42;21.20;99.90
15072;DHT22;7635;56.696;13.002;2023-09-18T14:11:10;21.20;99.90
15072;DHT22;7635;56.696;13.002;2023-09-18T14:13:37;21.20;99.90
15072;DHT22;7635;56.696;13.002;2023-09-18T14:16:04;21.10;99.90
15072;DHT22;7635;56.696;13.002;2023-09-18T14:18:31;21.10;99.90
15072;DHT22;7635;56.696;13.002;2023-09-18T14:20:58;21.00;99.90
15072;DHT22;7635;56.696;13.002;2023-09-18T14:23:25;21.00;99.90
15072;DHT22;7635;56.696;13.002;2023-09-18T14:25:52;21.00;99.90
15072;DHT22;7635;56.696;13.002;2023-09-18T14:28:21;21.00;99.90
15072;DHT22;7635;56.696;13.002;2023-09-18T14:30:48;21.00;99.90
15072;DHT22;7635;56.696;13.002;2023-09-18T14:33:14;20.90;99.90
15072;DHT22;7635;56.696;13.002;2023-09-18T14:35:41;20.90;99.90
15072;DHT22;7635;56.696;13.002;2023-09-18T14:38:08;20.90;99.90
15072;DHT22;7635;56.696;13.002;2023-09-18T14:40:35;20.90;99.90
15072;DHT22;7635;56.696;13.002;2023-09-18T14:43:02;20.80;99.90
15072;DHT22;7635;56.696;13.002;2023-09-18T14:45:31;20.80;99.90
15072;DHT22;7635;56.696;13.002;2023-09-18T14:47:58;20.80;99.90
15072;DHT22;7635;56.696;13.002;2023-09-18T14:50:25;20.80;99.90
15072;DHT22;7635;56.696;13.002;2023-09-18T14:52:52;20.70;99.90
15072;DHT22;7635;56.696;13.002;2023-09-18T14:55:18;20.70;99.90
15072;DHT22;7635;56.696;13.002;2023-09-18T14:57:45;20.70;99.90
15072;DHT22;7635;56.696;13.002;2023-09-18T15:00:12;20.60;99.90
15072;DHT22;7635;56.696;13.002;2023-09-18T15:02:40;20.60;99.90
15072;DHT22;7635;56.696;13.002;2023-09-18T15:05:07;20.60;99.90
15072;DHT22;7635;56.696;13.002;2023-09-18T15:07:37;20.60;99.90
15072;DHT22;7635;56.696;13.002;2023-09-18T15:10:05;20.50;99.90
15072;DHT22;7635;56.696;13.002;2023-09-18T15:12:32;20.50;99.90
15072;DHT22;7635;56.696;13.002;2023-09-18T15:14:59;20.50;99.90
15072;DHT22;7635;56.696;13.002;2023-09-18T15:17:25;20.40;99.90
15072;DHT22;7635;56.696;13.002;2023-09-18T15:19:54;20.40;99.90
15072;DHT22;7635;56.696;13.002;2023-09-18T15:22:21;20.40;99.90
15072;DHT22;7635;56.696;13.002;2023-09-18T15:24:48;20.40;99.90
15072;DHT22;7635;56.696;13.002;2023-09-18T15:27:16;20.30;99.90
15072;DHT22;7635;56.696;13.002;2023-09-18T15:29:43;20.30;99.90
15072;DHT22;7635;56.696;13.002;2023-09-18T15:32:10;20.30;99.90
15072;DHT22;7635;56.696;13.002;2023-09-18T15:34:36;20.20;99.90
15072;DHT22;7635;56.696;13.002;2023-09-18T15:37:04;20.20;99.90